Terminal Aerodrome Forecast
Issued by NWS

Current Version | Previous Version | Graphics & Text | Print | Product List | Glossary On
Versions: 1 2 3 4 5 6 7 8 9 10 11 12 13 14 15 16 17 18 19 20 21 22 23 24 25 26 27 28 29 30 31 32
767
FTUS41 KRNK 231720
TAFLWB
TAF
KLWB 231720Z 2318/2418 00000KT P6SM SKC
     FM241100 00000KT P6SM BKN080=

USA.gov is the U.S. government's official web portal to all federal, state and local government web resources and services.